Time;durP1;ratioP1;P1;durP2;ratioP2;P2;SDS_P1;SDS_P2;PMS_P1;PMS_P2;Temp;Humidity;BMP_temperature;BMP_pressure;BME280_temperature;BME280_humidity;BME280_pressure;Samples;Min_cycle;Max_cycle;Signal;HPM_P1;HPM_P2
2023/12/03 00:03:37;;;;;;;16.73;10.00;;;;;;;12.60;46.19;96662.09;10330475;28;20033;-50
2023/12/03 00:08:36;;;;;;;20.15;11.40;;;;;;;12.66;46.24;96681.00;10331037;28;20056;-51
2023/12/03 00:13:35;;;;;;;22.30;11.63;;;;;;;12.63;46.65;96704.53;10330624;28;20040;-51
2023/12/03 00:18:34;;;;;;;24.83;12.80;;;;;;;12.44;46.92;96700.69;10330427;28;20449;-50
2023/12/03 00:23:33;;;;;;;23.48;13.15;;;;;;;12.39;47.21;96700.81;10330152;28;20099;-51
2023/12/03 00:28:32;;;;;;;27.13;13.23;;;;;;;12.43;47.51;96711.97;10328234;28;20108;-50
2023/12/03 00:33:31;;;;;;;24.33;14.73;;;;;;;12.31;47.55;96707.94;10329823;28;20033;-50
2023/12/03 00:38:30;;;;;;;17.20;11.40;;;;;;;12.01;48.87;96693.88;10329678;28;20120;-51
2023/12/03 00:43:29;;;;;;;20.63;10.65;;;;;;;12.12;48.75;96730.06;10329256;28;20033;-50
2023/12/03 00:48:28;;;;;;;26.60;11.23;;;;;;;12.03;48.86;96718.13;10329269;28;20127;-50
2023/12/03 00:53:27;;;;;;;;;;;;;;;12.20;48.92;96731.56;10329612;28;20124;-53
2023/12/03 00:58:26;;;;;;;23.38;10.55;;;;;;;12.17;48.79;96713.44;10328774;28;19913;-50
2023/12/03 01:03:25;;;;;;;21.33;11.40;;;;;;;12.03;49.21;96689.50;10328016;28;20871;-50
2023/12/03 01:23:52;;;;;;;26.13;13.30;;;;;;;11.79;50.62;96724.72;10540509;27;20414;-48
2023/12/03 01:28:52;;;;;;;26.75;13.18;;;;;;;11.97;50.58;96744.25;10535817;28;20464;-48
2023/12/03 01:33:52;;;;;;;25.15;12.68;;;;;;;11.57;51.24;96682.75;10535549;28;20063;-49
2023/12/03 01:38:51;;;;;;;30.40;13.88;;;;;;;11.74;51.44;96740.44;10535638;28;20051;-48
2023/12/03 01:43:51;;;;;;;24.63;11.30;;;;;;;11.54;51.96;96727.00;10535499;28;20032;-48
2023/12/03 01:48:50;;;;;;;19.50;10.32;;;;;;;11.59;51.13;96730.34;10516892;28;20078;-49
2023/12/03 01:53:51;;;;;;;22.15;9.38;;;;;;;11.87;50.46;96754.84;10534612;28;20066;-49
2023/12/03 01:58:50;;;;;;;24.00;11.05;;;;;;;11.79;50.97;96730.78;10534578;28;20059;-49
2023/12/03 02:03:49;;;;;;;22.40;11.05;;;;;;;11.91;51.19;96740.06;10534959;28;20062;-49
2023/12/03 02:08:48;;;;;;;21.45;8.95;;;;;;;11.55;51.09;96676.75;10534160;28;20127;-49
2023/12/03 02:13:48;;;;;;;21.20;8.93;;;;;;;11.74;50.67;96706.66;10534042;28;20059;-49
2023/12/03 02:18:47;;;;;;;19.23;8.75;;;;;;;12.02;51.42;96745.03;10533930;28;20074;-48
2023/12/03 02:23:47;;;;;;;37.35;19.92;;;;;;;12.14;51.37;96769.88;10511570;28;20043;-49
2023/12/03 02:28:47;;;;;;;42.35;18.92;;;;;;;12.09;51.35;96772.59;10505401;28;21071;-49
2023/12/03 02:34:05;;;;;;;23.70;14.15;;;;;;;12.17;51.13;96747.25;10505235;28;20500;-48
2023/12/03 02:39:05;;;;;;;20.70;12.35;;;;;;;12.21;51.29;96741.09;10504737;28;20062;-49
2023/12/03 02:44:04;;;;;;;36.25;20.58;;;;;;;12.06;51.55;96726.72;10504732;28;20051;-49
2023/12/03 02:49:03;;;;;;;21.75;12.45;;;;;;;12.26;51.50;96773.03;10485669;28;20050;-48
2023/12/03 02:54:02;;;;;;;26.25;13.07;;;;;;;12.10;52.08;96766.47;10504419;28;20063;-48
2023/12/03 02:59:00;;;;;;;32.15;14.45;;;;;;;11.93;52.48;96750.44;10504731;28;20047;-48
2023/12/03 03:03:59;;;;;;;22.08;12.63;;;;;;;12.14;52.81;96804.53;10518999;27;20063;-49
2023/12/03 03:08:58;;;;;;;21.35;12.93;;;;;;;12.03;52.67;96793.53;10503757;28;20015;-48
2023/12/03 03:13:57;;;;;;;22.52;12.57;;;;;;;11.93;53.07;96786.81;10503556;28;20447;-49
2023/12/03 03:18:56;;;;;;;26.83;16.63;;;;;;;11.06;52.70;96646.63;10503327;28;20051;-49
2023/12/03 03:23:55;;;;;;;21.98;12.43;;;;;;;12.00;52.49;96819.59;10503326;28;20031;-49
2023/12/03 03:28:54;;;;;;;19.95;9.93;;;;;;;12.15;52.58;96854.81;10502956;28;20055;-48
2023/12/03 03:33:54;;;;;;;16.20;9.52;;;;;;;11.92;52.51;96808.50;10501989;28;20051;-49
2023/12/03 03:38:53;;;;;;;16.08;10.07;;;;;;;12.34;54.55;96881.31;10503027;28;20059;-48
2023/12/03 03:43:52;;;;;;;15.73;9.35;;;;;;;12.23;56.21;96884.97;10502803;28;20030;-49
2023/12/03 03:48:51;;;;;;;18.63;9.85;;;;;;;12.19;57.75;96898.91;10502786;28;20063;-49
2023/12/03 03:53:50;;;;;;;20.80;10.07;;;;;;;11.20;59.07;96753.69;10502287;28;20039;-49
2023/12/03 03:58:49;;;;;;;;;;;;;;;12.14;61.07;96947.59;10502905;28;20066;-49
2023/12/03 04:03:48;;;;;;;15.27;8.77;;;;;;;12.15;60.78;96954.47;10502145;28;19908;-48
2023/12/03 04:08:48;;;;;;;12.70;8.55;;;;;;;12.17;60.78;96947.50;10502100;28;20166;-49
2023/12/03 04:13:47;;;;;;;14.02;8.55;;;;;;;12.20;60.19;96947.44;10501614;28;20062;-49
2023/12/03 04:18:46;;;;;;;12.48;8.20;;;;;;;12.55;59.35;96974.50;10501436;28;20071;-49
2023/12/03 04:23:45;;;;;;;11.55;8.35;;;;;;;12.17;60.23;96934.50;10501332;28;20070;-48
2023/12/03 04:28:44;;;;;;;14.95;10.10;;;;;;;11.80;61.91;96956.03;10500920;28;20035;-48
2023/12/03 04:33:43;;;;;;;17.67;9.63;;;;;;;11.77;63.15;96997.69;10500707;28;20043;-49
2023/12/03 04:38:42;;;;;;;16.38;14.18;;;;;;;11.67;64.04;97006.53;10500717;28;20035;-49
2023/12/03 04:43:41;;;;;;;;;;;;;;;11.61;65.75;97051.66;10500554;28;20461;-48
2023/12/03 04:48:41;;;;;;;18.08;11.98;;;;;;;11.33;66.61;97059.03;10499864;28;20306;-48
2023/12/03 04:53:40;;;;;;;41.03;24.45;;;;;;;11.20;67.53;97063.56;10499926;28;20058;-49
2023/12/03 04:58:39;;;;;;;16.38;8.52;;;;;;;11.17;68.45;97070.53;10500556;28;20076;-48
2023/12/03 05:03:38;;;;;;;15.13;9.77;;;;;;;10.89;70.40;97086.47;10500281;28;20055;-48
2023/12/03 05:08:37;;;;;;;14.38;9.45;;;;;;;11.15;69.68;97126.81;10500361;28;20059;-50
2023/12/03 05:13:36;;;;;;;14.90;10.07;;;;;;;11.30;68.56;97149.16;10500072;28;20063;-48
2023/12/03 05:18:35;;;;;;;14.65;9.15;;;;;;;11.22;69.23;97151.81;10499365;28;20063;-48
2023/12/03 05:23:34;;;;;;;15.65;10.80;;;;;;;11.15;69.53;97182.22;10500156;28;20142;-49
2023/12/03 05:28:33;;;;;;;19.08;9.57;;;;;;;10.90;70.62;97142.72;10499167;28;20059;-48
2023/12/03 05:33:32;;;;;;;18.23;11.95;;;;;;;11.07;70.63;97188.38;10498853;28;20343;-48
2023/12/03 05:38:31;;;;;;;17.20;11.20;;;;;;;11.00;70.15;97182.41;10498556;28;20115;-48
2023/12/03 05:43:30;;;;;;;16.70;11.18;;;;;;;11.33;70.43;97255.59;10498016;28;20020;-48
2023/12/03 05:48:29;;;;;;;17.05;10.82;;;;;;;11.28;69.97;97231.41;10497760;28;20472;-48
2023/12/03 05:53:28;;;;;;;13.88;10.00;;;;;;;11.37;70.64;97239.09;10497565;28;20023;-49
2023/12/03 05:58:26;;;;;;;16.60;12.38;;;;;;;11.28;72.57;97244.41;10502224;28;20034;-49
2023/12/03 06:03:25;;;;;;;14.88;11.73;;;;;;;10.81;76.70;97237.09;10506256;28;20102;-48
2023/12/03 06:08:24;;;;;;;21.08;13.57;;;;;;;10.45;77.72;97224.44;10506054;28;20101;-49
2023/12/03 06:13:23;;;;;;;18.90;12.35;;;;;;;10.47;79.59;97249.53;10505703;28;20054;-48
2023/12/03 06:18:22;;;;;;;15.60;10.35;;;;;;;10.06;81.58;97191.09;10505376;28;20124;-49
2023/12/03 06:23:22;;;;;;;16.02;11.30;;;;;;;10.38;80.88;97205.53;10505378;28;20118;-49
2023/12/03 06:28:21;;;;;;;18.95;12.15;;;;;;;10.86;80.84;97243.97;10504580;28;20074;-49
2023/12/03 06:33:20;;;;;;;21.45;14.88;;;;;;;10.86;81.46;97250.00;10504742;28;20106;-49
2023/12/03 06:38:19;;;;;;;15.77;10.93;;;;;;;11.13;80.42;97289.59;10504663;28;20506;-49
2023/12/03 06:43:18;;;;;;;14.45;9.85;;;;;;;10.49;81.42;97288.41;10504634;28;20497;-48
2023/12/03 06:48:17;;;;;;;16.88;10.77;;;;;;;10.57;82.80;97313.44;10504771;28;20133;-49
2023/12/03 06:53:16;;;;;;;23.95;13.68;;;;;;;9.97;84.84;97268.91;10503825;28;20015;-49
2023/12/03 06:58:15;;;;;;;24.92;14.82;;;;;;;10.34;84.43;97316.19;10504334;28;20073;-49
2023/12/03 07:03:14;;;;;;;14.68;11.10;;;;;;;10.14;85.52;97329.31;10504098;28;20019;-48
2023/12/03 07:08:13;;;;;;;18.58;10.80;;;;;;;9.58;88.04;97304.53;10484167;28;20110;-49
2023/12/03 07:13:12;;;;;;;14.80;9.00;;;;;;;9.22;88.84;97313.25;10503529;28;20031;-48
2023/12/03 07:18:11;;;;;;;16.80;10.55;;;;;;;9.02;91.04;97349.53;10502996;28;20058;-51
2023/12/03 07:23:10;;;;;;;19.20;11.93;;;;;;;8.95;92.01;97359.06;10502967;28;20040;-49
2023/12/03 07:28:09;;;;;;;;;;;;;;;8.98;91.72;97377.16;10502864;28;20068;-48
2023/12/03 07:33:08;;;;;;;22.83;13.65;;;;;;;9.16;91.92;97397.00;10503157;28;20004;-48
2023/12/03 07:38:07;;;;;;;16.73;10.73;;;;;;;8.88;92.33;97381.47;10502716;28;20469;-51
2023/12/03 07:43:06;;;;;;;15.88;10.98;;;;;;;9.05;92.28;97399.59;10502405;28;20058;-48
2023/12/03 07:48:05;;;;;;;17.17;9.60;;;;;;;8.80;91.22;97388.38;10501955;28;20436;-49
2023/12/03 07:53:04;;;;;;;12.10;8.00;;;;;;;8.72;89.82;97403.91;10501988;28;20024;-48
2023/12/03 07:58:03;;;;;;;17.52;10.65;;;;;;;9.02;89.93;97429.75;10502007;28;20027;-48
2023/12/03 08:03:02;;;;;;;13.32;8.18;;;;;;;8.77;87.36;97406.50;10501127;28;20118;-48
2023/12/03 08:08:01;;;;;;;;;;;;;;;9.01;86.30;97464.28;10501899;28;20062;-49
2023/12/03 08:13:00;;;;;;;18.38;10.27;;;;;;;8.83;86.58;97440.13;10500454;28;19995;-48
2023/12/03 08:17:59;;;;;;;13.20;9.35;;;;;;;8.77;86.29;97470.31;10500525;28;20110;-49
2023/12/03 08:22:58;;;;;;;16.08;9.32;;;;;;;8.70;87.63;97485.81;10501360;28;20042;-49
2023/12/03 08:27:57;;;;;;;15.60;8.88;;;;;;;8.21;89.31;97480.50;10480659;28;20528;-48
2023/12/03 08:32:56;;;;;;;16.75;11.85;;;;;;;8.07;91.62;97500.25;10458250;28;20543;-48
2023/12/03 08:37:55;;;;;;;14.48;9.65;;;;;;;7.76;92.29;97496.66;10484401;28;20059;-48
2023/12/03 08:42:54;;;;;;;16.15;10.50;;;;;;;7.85;93.37;97512.19;10485718;28;20026;-48
2023/12/03 08:47:53;;;;;;;19.25;12.88;;;;;;;8.11;93.63;97529.53;10489731;28;20131;-48
2023/12/03 08:52:52;;;;;;;18.75;11.15;;;;;;;7.20;93.89;97356.84;10488279;28;20020;-48
2023/12/03 08:57:51;;;;;;;24.65;15.50;;;;;;;6.66;94.43;97269.69;10491959;28;20429;-46
2023/12/03 09:02:50;;;;;;;18.85;12.35;;;;;;;8.08;94.00;97515.78;10464687;28;20056;-48
2023/12/03 09:07:49;;;;;;;17.27;10.70;;;;;;;8.11;94.36;97532.13;10491174;28;20035;-47
2023/12/03 09:12:48;;;;;;;16.65;9.18;;;;;;;8.09;94.27;97509.72;10491724;28;20131;-47
2023/12/03 09:17:47;;;;;;;15.57;8.88;;;;;;;7.83;92.02;97501.84;10489232;28;20085;-47
2023/12/03 09:22:46;;;;;;;15.80;8.60;;;;;;;7.51;91.37;97504.22;10491049;28;20126;-47
2023/12/03 09:27:45;;;;;;;17.63;9.73;;;;;;;7.58;92.96;97536.13;10470677;28;20035;-48
2023/12/03 09:32:44;;;;;;;21.70;14.02;;;;;;;7.69;93.41;97569.78;10494326;28;20577;-48
2023/12/03 09:37:43;;;;;;;17.85;11.48;;;;;;;7.44;93.27;97530.84;10487967;28;21932;-47
2023/12/03 09:42:47;;;;;;;22.58;13.07;;;;;;;7.30;92.99;97551.34;10491640;28;20483;-49
2023/12/03 09:47:51;;;;;;;11.68;8.20;;;;;;;7.36;93.44;97563.47;10495058;28;20470;-47
2023/12/03 09:52:53;;;;;;;15.48;10.35;;;;;;;7.28;91.73;97541.88;10491418;28;20111;-48
2023/12/03 09:57:58;;;;;;;12.45;8.57;;;;;;;7.06;91.84;97527.91;10496189;28;20114;-47
2023/12/03 10:02:57;;;;;;;13.82;9.40;;;;;;;6.91;93.01;97485.63;10474876;28;20120;-47
2023/12/03 10:07:57;;;;;;;12.35;7.95;;;;;;;7.38;93.55;97543.66;10481969;28;20749;-48
2023/12/03 10:12:56;;;;;;;14.75;9.43;;;;;;;7.39;90.03;97554.00;10487689;28;20122;-47
2023/12/03 10:17:56;;;;;;;11.30;7.00;;;;;;;7.25;92.75;97520.34;10492157;28;20127;-47
2023/12/03 10:22:57;;;;;;;18.67;12.48;;;;;;;7.21;89.58;97500.50;10476239;28;20596;-47
2023/12/03 10:27:58;;;;;;;19.55;12.02;;;;;;;7.71;91.61;97584.44;10496807;28;20114;-47
2023/12/03 10:32:57;;;;;;;18.88;11.85;;;;;;;7.77;92.00;97570.69;10495415;28;20059;-47
2023/12/03 10:37:56;;;;;;;14.57;9.07;;;;;;;7.60;90.40;97561.09;10494483;28;20071;-48
2023/12/03 10:43:00;;;;;;;10.45;7.63;;;;;;;7.99;92.95;97598.41;10497310;28;20078;-47
2023/12/03 10:48:00;;;;;;;12.57;8.10;;;;;;;7.67;92.07;97541.34;10491702;28;20461;-47
2023/12/03 10:53:02;;;;;;;15.50;9.35;;;;;;;8.18;93.78;97588.19;10476625;28;20066;-47
2023/12/03 10:58:07;;;;;;;20.13;11.48;;;;;;;8.39;94.78;97608.97;10470749;28;20079;-47
2023/12/03 11:03:20;;;;;;;12.07;8.13;;;;;;;8.33;92.64;97614.09;10495670;28;20073;-47
2023/12/03 11:08:24;;;;;;;11.70;8.35;;;;;;;8.48;92.56;97624.56;10454923;28;20051;-47
2023/12/03 11:13:24;;;;;;;16.35;9.57;;;;;;;8.42;93.24;97583.13;10464637;28;20131;-47
2023/12/03 11:18:24;;;;;;;19.98;13.18;;;;;;;8.43;92.08;97596.91;10460917;28;20139;-47
2023/12/03 11:23:38;;;;;;;16.42;9.55;;;;;;;8.69;93.14;97607.38;10466829;28;20067;-47
2023/12/03 11:28:52;;;;;;;18.52;10.02;;;;;;;8.82;93.34;97613.47;10488920;28;20059;-47
2023/12/03 11:33:54;;;;;;;12.13;8.73;;;;;;;8.90;91.18;97610.06;10466259;28;20070;-47
2023/12/03 11:38:56;;;;;;;12.88;7.78;;;;;;;8.85;91.53;97609.16;10467079;28;20068;-47
2023/12/03 11:44:22;;;;;;;13.05;8.20;;;;;;;8.72;92.85;97572.06;10456046;28;20055;-47
2023/12/03 11:49:21;;;;;;;14.00;8.45;;;;;;;8.72;92.89;97545.31;10482181;27;20055;-48
2023/12/03 11:54:25;;;;;;;13.55;7.38;;;;;;;8.86;89.47;97587.63;10476122;27;20490;-47
2023/12/03 11:59:24;;;;;;;17.90;10.38;;;;;;;8.96;89.25;97644.59;10469712;27;20578;-48
2023/12/03 12:04:24;;;;;;;13.07;8.63;;;;;;;8.57;87.96;97609.91;10466702;28;20114;-47
2023/12/03 12:09:23;;;;;;;15.63;10.88;;;;;;;8.79;89.79;97649.69;10474352;28;20062;-47
2023/12/03 12:14:22;;;;;;;20.88;14.90;;;;;;;8.69;90.06;97630.66;10472931;28;20134;-49
2023/12/03 12:19:21;;;;;;;22.40;14.88;;;;;;;8.80;90.32;97638.47;10468541;28;20074;-47
2023/12/03 12:24:21;;;;;;;22.55;15.13;;;;;;;8.35;86.47;97596.03;10461929;28;20028;-46
2023/12/03 12:29:21;;;;;;;20.85;13.38;;;;;;;8.19;86.31;97657.97;10463903;28;20123;-46
2023/12/03 12:34:23;;;;;;;15.52;9.13;;;;;;;8.11;88.38;97669.09;10462588;28;20131;-46
2023/12/03 12:39:26;;;;;;;17.73;12.32;;;;;;;7.84;88.52;97644.78;10466597;28;20118;-47
2023/12/03 12:44:41;;;;;;;22.98;15.35;;;;;;;7.75;86.59;97678.28;10473975;28;20102;-46
2023/12/03 12:49:51;;;;;;;16.30;10.90;;;;;;;7.50;86.89;97660.00;10462331;28;20062;-47
2023/12/03 12:54:53;;;;;;;12.80;8.27;;;;;;;7.48;88.89;97673.75;10456529;28;20071;-46
2023/12/03 12:59:53;;;;;;;18.88;12.07;;;;;;;7.32;89.71;97650.31;10481622;28;20517;-47
2023/12/03 13:04:51;;;;;;;;;;;;;;;7.68;90.40;97698.03;10479451;28;20400;-47
2023/12/03 13:09:50;;;;;;;24.17;17.92;;;;;;;7.31;90.75;97629.63;10488511;28;20279;-47
2023/12/03 13:14:49;;;;;;;28.10;19.67;;;;;;;7.79;91.16;97693.81;10491551;28;20040;-47
2023/12/03 13:19:49;;;;;;;31.50;21.90;;;;;;;7.69;91.75;97675.66;10490948;28;20075;-47
2023/12/03 13:24:50;;;;;;;48.75;35.15;;;;;;;7.79;91.34;97709.34;10483809;28;20059;-47
2023/12/03 13:29:49;;;;;;;40.33;28.20;;;;;;;7.62;91.67;97688.50;10491454;28;20059;-48
2023/12/03 13:34:48;;;;;;;32.70;23.48;;;;;;;7.82;91.03;97749.81;10488451;28;20416;-47
2023/12/03 13:39:48;;;;;;;20.92;12.90;;;;;;;7.34;92.60;97743.28;10491039;28;20118;-48
2023/12/03 13:44:47;;;;;;;27.70;17.98;;;;;;;5.96;94.73;97724.13;10488699;28;20051;-47
2023/12/03 13:49:46;;;;;;;24.33;14.40;;;;;;;4.96;97.19;97711.97;10485581;28;20028;-48
2023/12/03 13:54:45;;;;;;;20.27;12.13;;;;;;;4.52;99.29;97729.84;10490602;28;20036;-47
2023/12/03 13:59:44;;;;;;;21.73;15.35;;;;;;;4.40;100.00;97757.84;10490824;28;20070;-47
2023/12/03 14:04:43;;;;;;;22.77;15.98;;;;;;;3.29;100.00;97585.78;10490643;28;20114;-47
2023/12/03 14:09:42;;;;;;;24.50;14.85;;;;;;;3.76;100.00;97711.81;10401592;28;20044;-47
2023/12/03 14:14:41;;;;;;;24.42;16.02;;;;;;;3.98;100.00;97799.63;10366806;28;20047;-47
2023/12/03 14:19:39;;;;;;;35.03;21.75;;;;;;;3.98;99.73;97785.09;10369816;28;20052;-50
2023/12/03 14:24:38;;;;;;;26.52;16.45;;;;;;;3.36;100.00;97761.22;10373636;28;20148;-48
2023/12/03 14:29:37;;;;;;;35.92;20.70;;;;;;;3.03;99.65;97721.00;10372123;28;20036;-47
2023/12/03 14:34:37;;;;;;;28.45;17.27;;;;;;;3.29;100.00;97814.03;10372436;28;20041;-48
2023/12/03 14:39:36;;;;;;;;;;;;;;;3.52;100.00;97840.34;10372214;28;20068;-47
2023/12/03 14:44:35;;;;;;;29.80;18.25;;;;;;;3.56;99.89;97826.75;10387072;28;19952;-51
2023/12/03 14:49:34;;;;;;;30.98;19.95;;;;;;;3.74;99.18;97831.53;10372069;28;20807;-47
2023/12/03 14:54:33;;;;;;;27.70;17.90;;;;;;;4.13;99.08;97858.19;10371239;28;20488;-48
2023/12/03 14:59:32;;;;;;;33.72;20.58;;;;;;;4.23;99.03;97843.09;10371553;28;20127;-48
2023/12/03 15:04:31;;;;;;;26.70;15.57;;;;;;;3.90;97.50;97806.28;10370554;28;20028;-49
2023/12/03 15:09:32;;;;;;;28.63;17.85;;;;;;;4.20;97.28;97867.84;10370739;28;20029;-48
2023/12/03 15:14:33;;;;;;;24.88;16.50;;;;;;;3.87;98.34;97812.22;10370764;28;20128;-49
2023/12/03 15:19:33;;;;;;;25.20;16.65;;;;;;;4.29;98.07;97842.34;10370847;28;20516;-49
2023/12/03 15:24:32;;;;;;;24.48;15.68;;;;;;;4.39;97.28;97892.28;10369556;28;20056;-49
2023/12/03 15:29:31;;;;;;;20.52;13.10;;;;;;;4.30;98.11;97895.50;10369305;28;20037;-48
2023/12/03 15:34:30;;;;;;;29.88;19.45;;;;;;;4.09;98.95;97885.53;10369312;28;20460;-48
2023/12/03 15:39:29;;;;;;;25.08;15.35;;;;;;;4.25;98.23;97850.84;10369339;28;20396;-48
2023/12/03 15:44:28;;;;;;;27.38;18.67;;;;;;;4.22;97.76;97825.06;10367643;28;20025;-48
2023/12/03 15:49:27;;;;;;;33.53;18.25;;;;;;;4.56;97.15;97873.00;10368738;28;20064;-48
2023/12/03 15:54:26;;;;;;;23.30;15.32;;;;;;;4.40;97.69;97856.34;10367868;28;20072;-48
2023/12/03 15:59:25;;;;;;;19.35;14.48;;;;;;;4.61;97.08;97891.97;10367854;28;20064;-48
2023/12/03 16:04:24;;;;;;;24.85;16.63;;;;;;;4.06;97.42;97822.13;10368402;28;20449;-48
2023/12/03 16:09:23;;;;;;;19.55;13.32;;;;;;;4.77;95.59;97915.50;10368339;28;20057;-48
2023/12/03 16:14:22;;;;;;;;;;;;;;;4.74;96.66;97913.72;10367729;28;20088;-50
2023/12/03 16:19:21;;;;;;;31.35;20.58;;;;;;;4.41;96.38;97888.94;10367535;28;19948;-49
2023/12/03 16:24:20;;;;;;;38.55;25.13;;;;;;;4.69;96.79;97920.47;10367415;28;20021;-48
2023/12/03 16:29:19;;;;;;;27.10;16.13;;;;;;;4.49;96.02;97905.41;10367950;28;20114;-48
2023/12/03 16:34:26;;;;;;;22.98;14.60;;;;;;;4.43;94.38;97896.66;10367481;28;20025;-48
2023/12/03 16:39:25;;;;;;;27.60;16.77;;;;;;;4.62;94.65;97911.72;10367314;28;20068;-48
2023/12/03 16:44:24;;;;;;;21.65;13.57;;;;;;;4.32;94.25;97875.00;10381956;28;20130;-48
2023/12/03 16:49:23;;;;;;;26.45;17.30;;;;;;;4.42;94.34;97910.34;10368012;28;20029;-48
2023/12/03 16:54:22;;;;;;;29.20;17.45;;;;;;;4.56;93.27;97929.56;10366625;28;20519;-48
2023/12/03 16:59:21;;;;;;;21.08;12.73;;;;;;;4.63;93.07;97930.59;10366883;28;20076;-48
2023/12/03 17:04:22;;;;;;;24.98;15.77;;;;;;;4.82;95.08;97953.34;10366835;28;20033;-48
2023/12/03 17:09:21;;;;;;;24.92;17.02;;;;;;;4.88;95.22;97926.94;10367505;28;20519;-47
2023/12/03 17:14:20;;;;;;;38.17;24.23;;;;;;;5.08;94.88;97941.13;10366887;28;20091;-48
2023/12/03 17:19:19;;;;;;;51.60;31.13;;;;;;;5.19;95.27;97973.97;10366978;28;20077;-49
2023/12/03 17:24:18;;;;;;;52.75;32.35;;;;;;;4.89;94.14;97955.22;10366490;28;20067;-48
2023/12/03 17:29:18;;;;;;;23.13;15.57;;;;;;;4.58;91.50;97948.47;10366863;28;20064;-47
2023/12/03 17:34:16;;;;;;;74.40;40.35;;;;;;;3.97;92.71;97985.34;10381035;28;20517;-48
2023/12/03 17:39:15;;;;;;;25.63;13.98;;;;;;;3.38;94.42;98022.06;10367253;28;20381;-48
2023/12/03 17:44:15;;;;;;;33.15;21.88;;;;;;;3.75;94.67;98007.81;10366557;28;20041;-47
2023/12/03 17:49:14;;;;;;;23.80;14.27;;;;;;;3.58;93.87;97978.19;10367545;28;20468;-48
2023/12/03 17:54:14;;;;;;;24.10;15.25;;;;;;;3.28;94.09;97961.03;10369511;28;20414;-48
2023/12/03 17:59:13;;;;;;;32.88;20.38;;;;;;;3.59;94.77;98003.91;10355516;28;20122;-47
2023/12/03 18:04:12;;;;;;;25.17;17.30;;;;;;;3.77;94.46;98001.00;10374849;28;20025;-47
2023/12/03 18:09:11;;;;;;;21.45;12.63;;;;;;;4.00;94.32;98026.50;10374268;28;20033;-48
2023/12/03 18:14:10;;;;;;;24.80;15.48;;;;;;;3.83;92.66;98001.19;10373687;28;20036;-48
2023/12/03 18:19:09;;;;;;;22.05;14.25;;;;;;;3.39;92.29;97962.25;10373456;28;20148;-48
2023/12/03 18:24:08;;;;;;;24.42;15.52;;;;;;;3.86;92.29;98032.09;10373349;28;20071;-48
2023/12/03 18:29:09;;;;;;;24.33;15.48;;;;;;;3.89;92.55;98020.16;10373512;28;20051;-47
2023/12/03 18:34:08;;;;;;;23.75;15.85;;;;;;;3.95;92.17;98036.63;10372951;28;20159;-48
2023/12/03 18:39:08;;;;;;;24.23;15.98;;;;;;;4.16;92.85;98050.94;10371245;28;20039;-47
2023/12/03 18:44:07;;;;;;;25.80;16.63;;;;;;;4.27;93.08;98011.00;10370687;28;20067;-48
2023/12/03 18:49:06;;;;;;;26.70;17.85;;;;;;;4.20;92.89;98004.81;10370924;28;20044;-47
2023/12/03 18:54:05;;;;;;;25.65;16.88;;;;;;;4.62;93.18;98039.34;10370282;28;20064;-47
2023/12/03 18:59:04;;;;;;;26.40;16.45;;;;;;;4.53;93.60;97996.31;10370804;28;20068;-48
2023/12/03 19:04:03;;;;;;;31.02;18.17;;;;;;;4.83;92.96;98027.09;10370110;28;20562;-47
2023/12/03 19:09:03;;;;;;;26.95;17.90;;;;;;;4.86;91.93;98036.59;10370035;28;20064;-47
2023/12/03 19:14:02;;;;;;;22.95;15.63;;;;;;;4.88;90.98;98024.63;10369762;28;20120;-48
2023/12/03 19:19:01;;;;;;;27.27;16.70;;;;;;;4.89;91.95;98013.50;10383812;28;20289;-48
2023/12/03 19:24:02;;;;;;;24.77;16.80;;;;;;;4.92;91.19;98001.63;10384510;28;20127;-48
2023/12/03 19:29:00;;;;;;;22.67;14.77;;;;;;;4.78;90.07;98014.94;10368780;28;20155;-47
2023/12/03 19:33:59;;;;;;;25.58;17.23;;;;;;;4.86;91.31;98018.59;10368633;28;20128;-47
2023/12/03 19:38:58;;;;;;;25.23;16.30;;;;;;;4.54;89.93;97976.59;10368480;28;20070;-47
2023/12/03 19:43:57;;;;;;;31.40;17.25;;;;;;;4.69;90.42;98019.00;10368102;28;20033;-48
2023/12/03 19:48:56;;;;;;;25.70;15.52;;;;;;;4.97;91.57;98032.63;10368345;28;20715;-48
2023/12/03 19:53:55;;;;;;;24.33;15.63;;;;;;;4.85;90.88;98019.41;10367740;28;20487;-47
2023/12/03 19:58:54;;;;;;;23.67;15.23;;;;;;;4.99;90.81;98054.06;10366755;28;20102;-47
2023/12/03 20:03:53;;;;;;;27.20;16.83;;;;;;;4.58;91.17;97978.44;10369392;28;20037;-48
2023/12/03 20:08:52;;;;;;;24.55;14.43;;;;;;;4.99;90.46;98059.22;10369013;28;20043;-48
2023/12/03 20:13:51;;;;;;;;;;;;;;;5.01;90.63;98062.72;10368807;28;20480;-48
2023/12/03 20:18:51;;;;;;;31.58;17.17;;;;;;;4.81;90.68;98057.03;10367822;28;20648;-47
2023/12/03 20:23:50;;;;;;;24.88;16.13;;;;;;;4.56;90.08;98010.94;10368325;28;20072;-47
2023/12/03 20:28:49;;;;;;;29.58;16.90;;;;;;;4.75;90.53;98058.56;10367551;28;20079;-47
2023/12/03 20:33:48;;;;;;;27.75;16.25;;;;;;;4.75;89.95;98045.72;10367135;28;20123;-47
2023/12/03 20:38:47;;;;;;;31.15;18.27;;;;;;;4.70;90.26;98045.59;10377412;28;20048;-47
2023/12/03 20:43:46;;;;;;;23.63;15.20;;;;;;;4.88;90.34;98076.06;10368039;28;20064;-48
2023/12/03 20:48:45;;;;;;;29.38;15.73;;;;;;;4.56;90.48;98009.22;10367692;28;20036;-47
2023/12/03 20:53:44;;;;;;;27.27;15.32;;;;;;;4.79;89.93;98044.97;10368328;28;20041;-47
2023/12/03 20:58:43;;;;;;;22.45;13.82;;;;;;;5.05;89.92;98079.97;10367491;28;20064;-47
2023/12/03 21:03:42;;;;;;;24.05;14.43;;;;;;;5.07;90.42;98062.88;10368174;28;20056;-48
2023/12/03 21:08:41;;;;;;;27.02;15.10;;;;;;;4.82;87.43;98040.75;10367880;28;20032;-47
2023/12/03 21:13:40;;;;;;;28.40;16.00;;;;;;;5.00;87.62;98073.84;10367564;28;20211;-48
2023/12/03 21:18:39;;;;;;;;;;;;;;;5.01;87.48;98108.13;10367494;28;20714;-47
2023/12/03 21:23:38;;;;;;;34.55;18.55;;;;;;;4.51;87.73;98044.22;10367023;28;20598;-47
2023/12/03 21:28:37;;;;;;;33.58;17.30;;;;;;;4.85;87.82;98084.56;10372419;28;20693;-48
2023/12/03 21:33:36;;;;;;;20.33;13.30;;;;;;;4.34;88.10;98027.44;10374974;28;20102;-48
2023/12/03 21:38:35;;;;;;;36.17;17.73;;;;;;;3.89;87.87;97967.13;10374450;28;20028;-48
2023/12/03 21:43:34;;;;;;;26.80;17.17;;;;;;;4.46;88.06;98050.94;10356833;28;20155;-47
2023/12/03 21:48:33;;;;;;;32.10;16.75;;;;;;;4.66;88.92;98072.88;10374811;28;20040;-47
2023/12/03 21:53:32;;;;;;;21.73;12.85;;;;;;;4.90;87.03;98123.28;10375276;28;20037;-48
2023/12/03 21:58:31;;;;;;;20.70;13.38;;;;;;;4.43;89.06;98118.53;10374203;28;20470;-48
2023/12/03 22:03:30;;;;;;;21.77;12.88;;;;;;;3.97;89.44;98123.97;10374653;28;20036;-47
2023/12/03 22:08:29;;;;;;;20.83;13.98;;;;;;;3.63;90.94;98092.09;10373273;28;20507;-47
2023/12/03 22:13:28;;;;;;;21.98;14.57;;;;;;;3.70;91.42;98111.13;10372039;28;20535;-47
2023/12/03 22:18:27;;;;;;;23.70;15.23;;;;;;;3.85;91.50;98112.50;10371682;28;20495;-47
2023/12/03 22:23:26;;;;;;;24.15;15.35;;;;;;;4.03;89.66;98142.13;10371846;28;20041;-47
2023/12/03 22:28:25;;;;;;;21.92;14.02;;;;;;;3.36;89.73;98121.19;10371084;28;20515;-48
2023/12/03 22:33:25;;;;;;;22.75;14.50;;;;;;;3.15;89.93;98152.13;10371436;28;20487;-47
2023/12/03 22:38:24;;;;;;;22.15;14.50;;;;;;;2.83;88.72;98162.94;10370544;28;20067;-48
2023/12/03 22:43:23;;;;;;;20.90;12.45;;;;;;;2.23;86.91;98124.84;10370973;28;20025;-47
2023/12/03 22:48:21;;;;;;;20.15;14.15;;;;;;;2.38;87.40;98174.09;10370551;28;20751;-48
2023/12/03 22:53:20;;;;;;;18.40;12.60;;;;;;;2.00;87.60;98170.94;10370580;28;20051;-47
2023/12/03 22:58:19;;;;;;;18.10;12.88;;;;;;;2.15;87.71;98163.84;10370320;28;20037;-47
2023/12/03 23:03:18;;;;;;;20.77;12.27;;;;;;;2.48;87.27;98176.19;10370009;28;20032;-47
2023/12/03 23:08:17;;;;;;;17.88;11.85;;;;;;;2.51;86.25;98166.06;10370147;28;20369;-48
2023/12/03 23:13:16;;;;;;;19.88;12.00;;;;;;;2.32;86.80;98122.63;10370202;28;20037;-47
2023/12/03 23:18:15;;;;;;;21.23;13.60;;;;;;;3.00;87.57;98188.34;10366053;28;20032;-47